sensor_id;sensor_type;location;lat;lon;timestamp;P1;durP1;ratioP1;P2;durP2;ratioP2
5612;SDS011;2828;53.582;9.956;2022-07-24T00:00:36;4.60;;;4.30;;
5612;SDS011;2828;53.582;9.956;2022-07-24T00:03:02;4.77;;;4.40;;
5612;SDS011;2828;53.582;9.956;2022-07-24T00:05:28;11.27;;;5.00;;
5612;SDS011;2828;53.582;9.956;2022-07-24T00:07:54;5.90;;;4.57;;
5612;SDS011;2828;53.582;9.956;2022-07-24T00:10:20;6.10;;;5.60;;
5612;SDS011;2828;53.582;9.956;2022-07-24T00:12:46;10.73;;;5.27;;
5612;SDS011;2828;53.582;9.956;2022-07-24T00:15:12;4.90;;;4.50;;
5612;SDS011;2828;53.582;9.956;2022-07-24T00:17:38;7.43;;;5.60;;
5612;SDS011;2828;53.582;9.956;2022-07-24T00:20:05;5.17;;;4.77;;
5612;SDS011;2828;53.582;9.956;2022-07-24T00:22:31;5.43;;;4.60;;
5612;SDS011;2828;53.582;9.956;2022-07-24T00:24:57;6.33;;;4.57;;
5612;SDS011;2828;53.582;9.956;2022-07-24T00:27:23;5.83;;;5.30;;
5612;SDS011;2828;53.582;9.956;2022-07-24T00:29:49;5.17;;;4.53;;
5612;SDS011;2828;53.582;9.956;2022-07-24T00:32:15;8.10;;;5.10;;
5612;SDS011;2828;53.582;9.956;2022-07-24T00:34:41;6.60;;;4.40;;
5612;SDS011;2828;53.582;9.956;2022-07-24T00:37:07;5.23;;;4.73;;
5612;SDS011;2828;53.582;9.956;2022-07-24T00:39:33;5.20;;;4.70;;
5612;SDS011;2828;53.582;9.956;2022-07-24T00:41:59;5.73;;;4.93;;
5612;SDS011;2828;53.582;9.956;2022-07-24T00:44:25;8.93;;;5.27;;
5612;SDS011;2828;53.582;9.956;2022-07-24T00:46:51;5.20;;;4.80;;
5612;SDS011;2828;53.582;9.956;2022-07-24T00:49:18;9.50;;;4.87;;
5612;SDS011;2828;53.582;9.956;2022-07-24T00:51:45;6.40;;;4.70;;
5612;SDS011;2828;53.582;9.956;2022-07-24T00:54:12;11.97;;;5.23;;
5612;SDS011;2828;53.582;9.956;2022-07-24T00:56:38;5.10;;;4.70;;
5612;SDS011;2828;53.582;9.956;2022-07-24T00:59:06;7.47;;;5.30;;
5612;SDS011;2828;53.582;9.956;2022-07-24T01:01:32;5.67;;;5.00;;
5612;SDS011;2828;53.582;9.956;2022-07-24T01:03:58;5.50;;;4.53;;
5612;SDS011;2828;53.582;9.956;2022-07-24T01:06:24;16.27;;;4.80;;
5612;SDS011;2828;53.582;9.956;2022-07-24T01:08:50;8.20;;;4.67;;
5612;SDS011;2828;53.582;9.956;2022-07-24T01:11:17;6.37;;;5.80;;
5612;SDS011;2828;53.582;9.956;2022-07-24T01:13:44;5.13;;;4.73;;
5612;SDS011;2828;53.582;9.956;2022-07-24T01:16:10;5.17;;;4.67;;
5612;SDS011;2828;53.582;9.956;2022-07-24T01:18:36;5.07;;;4.67;;
5612;SDS011;2828;53.582;9.956;2022-07-24T01:21:03;6.20;;;4.87;;
5612;SDS011;2828;53.582;9.956;2022-07-24T01:23:29;7.17;;;5.10;;
5612;SDS011;2828;53.582;9.956;2022-07-24T01:25:55;5.10;;;4.70;;
5612;SDS011;2828;53.582;9.956;2022-07-24T01:28:21;4.53;;;4.23;;
5612;SDS011;2828;53.582;9.956;2022-07-24T01:30:47;14.90;;;5.17;;
5612;SDS011;2828;53.582;9.956;2022-07-24T01:33:13;5.17;;;4.53;;
5612;SDS011;2828;53.582;9.956;2022-07-24T01:35:39;10.53;;;5.07;;
5612;SDS011;2828;53.582;9.956;2022-07-24T01:38:05;8.17;;;5.47;;
5612;SDS011;2828;53.582;9.956;2022-07-24T01:40:31;5.20;;;4.70;;
5612;SDS011;2828;53.582;9.956;2022-07-24T01:42:58;6.67;;;4.87;;
5612;SDS011;2828;53.582;9.956;2022-07-24T01:45:24;5.00;;;4.50;;
5612;SDS011;2828;53.582;9.956;2022-07-24T01:47:50;5.00;;;4.60;;
5612;SDS011;2828;53.582;9.956;2022-07-24T01:50:16;5.80;;;4.60;;
5612;SDS011;2828;53.582;9.956;2022-07-24T01:52:42;6.00;;;4.70;;
5612;SDS011;2828;53.582;9.956;2022-07-24T01:55:08;5.27;;;4.77;;
5612;SDS011;2828;53.582;9.956;2022-07-24T01:57:34;5.00;;;4.50;;
5612;SDS011;2828;53.582;9.956;2022-07-24T02:00:01;5.73;;;4.50;;
5612;SDS011;2828;53.582;9.956;2022-07-24T02:02:27;4.93;;;4.30;;
5612;SDS011;2828;53.582;9.956;2022-07-24T02:04:53;6.03;;;4.50;;
5612;SDS011;2828;53.582;9.956;2022-07-24T02:07:19;5.33;;;4.83;;
5612;SDS011;2828;53.582;9.956;2022-07-24T02:09:45;8.30;;;5.13;;
5612;SDS011;2828;53.582;9.956;2022-07-24T02:12:11;5.77;;;4.80;;
5612;SDS011;2828;53.582;9.956;2022-07-24T02:14:37;6.67;;;5.10;;
5612;SDS011;2828;53.582;9.956;2022-07-24T02:17:03;8.93;;;5.20;;
5612;SDS011;2828;53.582;9.956;2022-07-24T02:19:29;6.23;;;5.07;;
5612;SDS011;2828;53.582;9.956;2022-07-24T02:21:55;6.03;;;4.97;;
5612;SDS011;2828;53.582;9.956;2022-07-24T02:24:22;5.60;;;5.10;;
5612;SDS011;2828;53.582;9.956;2022-07-24T02:26:48;5.30;;;4.70;;
5612;SDS011;2828;53.582;9.956;2022-07-24T02:29:14;5.30;;;4.90;;
5612;SDS011;2828;53.582;9.956;2022-07-24T02:31:40;6.03;;;5.27;;
5612;SDS011;2828;53.582;9.956;2022-07-24T02:34:06;6.10;;;4.90;;
5612;SDS011;2828;53.582;9.956;2022-07-24T02:36:32;7.30;;;4.97;;
5612;SDS011;2828;53.582;9.956;2022-07-24T02:38:58;5.67;;;5.00;;
5612;SDS011;2828;53.582;9.956;2022-07-24T02:41:24;5.87;;;5.27;;
5612;SDS011;2828;53.582;9.956;2022-07-24T02:43:50;5.50;;;5.10;;
5612;SDS011;2828;53.582;9.956;2022-07-24T02:46:16;9.13;;;5.63;;
5612;SDS011;2828;53.582;9.956;2022-07-24T02:48:42;10.60;;;5.50;;
5612;SDS011;2828;53.582;9.956;2022-07-24T02:51:08;8.37;;;5.10;;
5612;SDS011;2828;53.582;9.956;2022-07-24T02:53:35;7.93;;;5.40;;
5612;SDS011;2828;53.582;9.956;2022-07-24T02:56:01;6.20;;;5.57;;
5612;SDS011;2828;53.582;9.956;2022-07-24T02:58:27;7.37;;;5.70;;
5612;SDS011;2828;53.582;9.956;2022-07-24T03:00:53;6.63;;;5.47;;
5612;SDS011;2828;53.582;9.956;2022-07-24T03:03:19;6.10;;;5.07;;
5612;SDS011;2828;53.582;9.956;2022-07-24T03:05:45;7.73;;;5.10;;
5612;SDS011;2828;53.582;9.956;2022-07-24T03:08:11;12.73;;;6.00;;
5612;SDS011;2828;53.582;9.956;2022-07-24T03:10:37;6.47;;;5.43;;
5612;SDS011;2828;53.582;9.956;2022-07-24T03:13:03;7.07;;;5.50;;
5612;SDS011;2828;53.582;9.956;2022-07-24T03:15:30;7.63;;;4.80;;
5612;SDS011;2828;53.582;9.956;2022-07-24T03:17:56;7.40;;;5.27;;
5612;SDS011;2828;53.582;9.956;2022-07-24T03:20:24;5.03;;;4.63;;
5612;SDS011;2828;53.582;9.956;2022-07-24T03:22:50;5.33;;;4.83;;
5612;SDS011;2828;53.582;9.956;2022-07-24T03:25:16;8.17;;;5.73;;
5612;SDS011;2828;53.582;9.956;2022-07-24T03:27:42;5.70;;;4.60;;
5612;SDS011;2828;53.582;9.956;2022-07-24T03:30:09;5.00;;;4.60;;
5612;SDS011;2828;53.582;9.956;2022-07-24T03:32:35;5.87;;;5.37;;
5612;SDS011;2828;53.582;9.956;2022-07-24T03:35:01;11.90;;;5.80;;
5612;SDS011;2828;53.582;9.956;2022-07-24T03:37:27;5.20;;;4.80;;
5612;SDS011;2828;53.582;9.956;2022-07-24T03:39:53;8.50;;;5.60;;
5612;SDS011;2828;53.582;9.956;2022-07-24T03:42:19;12.47;;;5.57;;
5612;SDS011;2828;53.582;9.956;2022-07-24T03:44:45;6.43;;;5.83;;
5612;SDS011;2828;53.582;9.956;2022-07-24T03:47:11;6.37;;;5.77;;
5612;SDS011;2828;53.582;9.956;2022-07-24T03:49:37;10.80;;;5.70;;
5612;SDS011;2828;53.582;9.956;2022-07-24T03:52:03;5.60;;;5.10;;
5612;SDS011;2828;53.582;9.956;2022-07-24T03:54:29;5.57;;;5.03;;
5612;SDS011;2828;53.582;9.956;2022-07-24T03:56:55;7.70;;;5.80;;
5612;SDS011;2828;53.582;9.956;2022-07-24T03:59:21;6.40;;;5.80;;
5612;SDS011;2828;53.582;9.956;2022-07-24T04:01:47;5.83;;;5.40;;
5612;SDS011;2828;53.582;9.956;2022-07-24T04:04:13;6.50;;;5.77;;
5612;SDS011;2828;53.582;9.956;2022-07-24T04:06:39;10.30;;;5.80;;
5612;SDS011;2828;53.582;9.956;2022-07-24T04:09:05;7.87;;;6.33;;
5612;SDS011;2828;53.582;9.956;2022-07-24T04:11:31;14.83;;;6.17;;
5612;SDS011;2828;53.582;9.956;2022-07-24T04:13:58;10.50;;;6.73;;
5612;SDS011;2828;53.582;9.956;2022-07-24T04:16:24;7.23;;;6.13;;
5612;SDS011;2828;53.582;9.956;2022-07-24T04:18:50;5.70;;;5.20;;
5612;SDS011;2828;53.582;9.956;2022-07-24T04:21:16;7.87;;;6.40;;
5612;SDS011;2828;53.582;9.956;2022-07-24T04:23:42;7.10;;;5.87;;
5612;SDS011;2828;53.582;9.956;2022-07-24T04:26:08;6.30;;;5.70;;
5612;SDS011;2828;53.582;9.956;2022-07-24T04:28:34;9.33;;;5.27;;
5612;SDS011;2828;53.582;9.956;2022-07-24T04:31:00;8.63;;;5.50;;
5612;SDS011;2828;53.582;9.956;2022-07-24T04:33:26;6.20;;;5.60;;
5612;SDS011;2828;53.582;9.956;2022-07-24T04:35:52;8.10;;;5.50;;
5612;SDS011;2828;53.582;9.956;2022-07-24T04:38:18;5.70;;;5.20;;
5612;SDS011;2828;53.582;9.956;2022-07-24T04:40:44;8.00;;;7.20;;
5612;SDS011;2828;53.582;9.956;2022-07-24T04:43:10;5.07;;;4.57;;
5612;SDS011;2828;53.582;9.956;2022-07-24T04:45:36;10.57;;;4.67;;
5612;SDS011;2828;53.582;9.956;2022-07-24T04:48:02;5.33;;;4.83;;
5612;SDS011;2828;53.582;9.956;2022-07-24T04:50:28;8.50;;;5.00;;
5612;SDS011;2828;53.582;9.956;2022-07-24T04:52:54;6.37;;;4.50;;
5612;SDS011;2828;53.582;9.956;2022-07-24T04:55:20;7.53;;;4.73;;
5612;SDS011;2828;53.582;9.956;2022-07-24T04:57:46;4.73;;;4.33;;
5612;SDS011;2828;53.582;9.956;2022-07-24T05:00:12;6.50;;;4.30;;
5612;SDS011;2828;53.582;9.956;2022-07-24T05:02:39;5.77;;;5.23;;
5612;SDS011;2828;53.582;9.956;2022-07-24T05:05:05;4.87;;;4.43;;
5612;SDS011;2828;53.582;9.956;2022-07-24T05:07:31;5.83;;;5.17;;
5612;SDS011;2828;53.582;9.956;2022-07-24T05:09:57;6.20;;;4.30;;
5612;SDS011;2828;53.582;9.956;2022-07-24T05:12:24;6.30;;;4.50;;
5612;SDS011;2828;53.582;9.956;2022-07-24T05:14:50;5.10;;;4.63;;
5612;SDS011;2828;53.582;9.956;2022-07-24T05:17:15;5.60;;;4.57;;
5612;SDS011;2828;53.582;9.956;2022-07-24T05:19:41;7.93;;;4.50;;
5612;SDS011;2828;53.582;9.956;2022-07-24T05:22:07;5.40;;;4.33;;
5612;SDS011;2828;53.582;9.956;2022-07-24T05:24:33;9.63;;;4.00;;
5612;SDS011;2828;53.582;9.956;2022-07-24T05:26:59;4.10;;;3.80;;
5612;SDS011;2828;53.582;9.956;2022-07-24T05:29:25;6.63;;;3.83;;
5612;SDS011;2828;53.582;9.956;2022-07-24T05:31:51;7.50;;;4.70;;
5612;SDS011;2828;53.582;9.956;2022-07-24T05:34:19;3.50;;;3.40;;
5612;SDS011;2828;53.582;9.956;2022-07-24T05:36:45;4.20;;;3.90;;
5612;SDS011;2828;53.582;9.956;2022-07-24T05:39:11;6.13;;;3.97;;
5612;SDS011;2828;53.582;9.956;2022-07-24T05:41:37;5.40;;;3.83;;
5612;SDS011;2828;53.582;9.956;2022-07-24T05:44:04;3.93;;;3.63;;
5612;SDS011;2828;53.582;9.956;2022-07-24T05:46:30;4.17;;;3.80;;
5612;SDS011;2828;53.582;9.956;2022-07-24T05:48:56;4.73;;;4.20;;
5612;SDS011;2828;53.582;9.956;2022-07-24T05:51:22;5.90;;;4.20;;
5612;SDS011;2828;53.582;9.956;2022-07-24T05:53:48;4.90;;;3.77;;
5612;SDS011;2828;53.582;9.956;2022-07-24T05:56:14;4.90;;;3.83;;
5612;SDS011;2828;53.582;9.956;2022-07-24T05:58:40;4.00;;;3.70;;
5612;SDS011;2828;53.582;9.956;2022-07-24T06:01:06;4.50;;;3.50;;
5612;SDS011;2828;53.582;9.956;2022-07-24T06:03:32;4.37;;;3.80;;
5612;SDS011;2828;53.582;9.956;2022-07-24T06:05:58;3.50;;;3.20;;
5612;SDS011;2828;53.582;9.956;2022-07-24T06:08:24;8.53;;;3.63;;
5612;SDS011;2828;53.582;9.956;2022-07-24T06:10:49;4.30;;;3.10;;
5612;SDS011;2828;53.582;9.956;2022-07-24T06:13:15;4.37;;;3.70;;
5612;SDS011;2828;53.582;9.956;2022-07-24T06:15:41;7.90;;;3.50;;
5612;SDS011;2828;53.582;9.956;2022-07-24T06:18:07;3.20;;;3.00;;
5612;SDS011;2828;53.582;9.956;2022-07-24T06:20:33;3.67;;;3.17;;
5612;SDS011;2828;53.582;9.956;2022-07-24T06:22:59;3.63;;;3.20;;
5612;SDS011;2828;53.582;9.956;2022-07-24T06:25:25;4.30;;;4.00;;
5612;SDS011;2828;53.582;9.956;2022-07-24T06:27:51;3.20;;;3.00;;
5612;SDS011;2828;53.582;9.956;2022-07-24T06:30:23;3.40;;;3.20;;
5612;SDS011;2828;53.582;9.956;2022-07-24T06:32:51;3.67;;;3.47;;
5612;SDS011;2828;53.582;9.956;2022-07-24T06:35:17;3.03;;;2.93;;
5612;SDS011;2828;53.582;9.956;2022-07-24T06:37:43;3.47;;;3.03;;
5612;SDS011;2828;53.582;9.956;2022-07-24T06:40:09;3.70;;;2.80;;
5612;SDS011;2828;53.582;9.956;2022-07-24T06:42:35;4.77;;;3.20;;
5612;SDS011;2828;53.582;9.956;2022-07-24T06:45:01;3.33;;;2.83;;
5612;SDS011;2828;53.582;9.956;2022-07-24T06:47:28;3.43;;;3.23;;
5612;SDS011;2828;53.582;9.956;2022-07-24T06:49:54;3.20;;;3.00;;
5612;SDS011;2828;53.582;9.956;2022-07-24T06:52:20;2.80;;;2.70;;
5612;SDS011;2828;53.582;9.956;2022-07-24T06:54:46;5.00;;;3.00;;
5612;SDS011;2828;53.582;9.956;2022-07-24T06:57:12;4.17;;;2.80;;
5612;SDS011;2828;53.582;9.956;2022-07-24T06:59:38;5.93;;;3.00;;
5612;SDS011;2828;53.582;9.956;2022-07-24T07:02:04;4.40;;;3.23;;
5612;SDS011;2828;53.582;9.956;2022-07-24T07:04:30;4.10;;;3.07;;
5612;SDS011;2828;53.582;9.956;2022-07-24T07:06:56;9.83;;;3.43;;
5612;SDS011;2828;53.582;9.956;2022-07-24T07:09:22;3.07;;;2.97;;
5612;SDS011;2828;53.582;9.956;2022-07-24T07:11:48;3.40;;;3.07;;
5612;SDS011;2828;53.582;9.956;2022-07-24T07:14:14;3.20;;;3.00;;
5612;SDS011;2828;53.582;9.956;2022-07-24T07:16:40;3.27;;;3.03;;
5612;SDS011;2828;53.582;9.956;2022-07-24T07:19:06;3.00;;;2.80;;
5612;SDS011;2828;53.582;9.956;2022-07-24T07:21:32;6.70;;;4.43;;
5612;SDS011;2828;53.582;9.956;2022-07-24T07:23:58;6.53;;;3.70;;
5612;SDS011;2828;53.582;9.956;2022-07-24T07:26:24;3.10;;;2.90;;
5612;SDS011;2828;53.582;9.956;2022-07-24T07:28:50;4.20;;;2.87;;
5612;SDS011;2828;53.582;9.956;2022-07-24T07:31:16;3.67;;;3.30;;
5612;SDS011;2828;53.582;9.956;2022-07-24T07:33:42;6.00;;;2.90;;
5612;SDS011;2828;53.582;9.956;2022-07-24T07:36:08;3.70;;;2.57;;
5612;SDS011;2828;53.582;9.956;2022-07-24T07:38:34;2.67;;;2.53;;
5612;SDS011;2828;53.582;9.956;2022-07-24T07:41:02;3.83;;;2.43;;
5612;SDS011;2828;53.582;9.956;2022-07-24T07:43:28;2.13;;;2.03;;
5612;SDS011;2828;53.582;9.956;2022-07-24T07:45:54;4.47;;;2.80;;
5612;SDS011;2828;53.582;9.956;2022-07-24T07:48:20;7.40;;;2.67;;
5612;SDS011;2828;53.582;9.956;2022-07-24T07:50:46;2.57;;;2.47;;
5612;SDS011;2828;53.582;9.956;2022-07-24T07:53:12;3.27;;;2.80;;
5612;SDS011;2828;53.582;9.956;2022-07-24T07:55:38;3.00;;;2.67;;
5612;SDS011;2828;53.582;9.956;2022-07-24T07:58:04;2.70;;;2.60;;
5612;SDS011;2828;53.582;9.956;2022-07-24T08:00:31;2.40;;;2.20;;
5612;SDS011;2828;53.582;9.956;2022-07-24T08:02:57;2.60;;;2.40;;
5612;SDS011;2828;53.582;9.956;2022-07-24T08:05:23;2.30;;;2.20;;
5612;SDS011;2828;53.582;9.956;2022-07-24T08:07:49;3.07;;;2.63;;
5612;SDS011;2828;53.582;9.956;2022-07-24T08:10:15;3.67;;;2.40;;
5612;SDS011;2828;53.582;9.956;2022-07-24T08:12:41;8.60;;;3.70;;
5612;SDS011;2828;53.582;9.956;2022-07-24T08:15:07;2.60;;;2.40;;
5612;SDS011;2828;53.582;9.956;2022-07-24T08:17:33;2.40;;;2.30;;
5612;SDS011;2828;53.582;9.956;2022-07-24T08:19:59;2.67;;;2.47;;
5612;SDS011;2828;53.582;9.956;2022-07-24T08:22:25;2.27;;;2.17;;
5612;SDS011;2828;53.582;9.956;2022-07-24T08:24:51;3.27;;;2.80;;
5612;SDS011;2828;53.582;9.956;2022-07-24T08:27:17;3.70;;;2.23;;
5612;SDS011;2828;53.582;9.956;2022-07-24T08:29:43;5.33;;;2.50;;
5612;SDS011;2828;53.582;9.956;2022-07-24T08:32:09;3.20;;;2.10;;
5612;SDS011;2828;53.582;9.956;2022-07-24T08:34:35;2.40;;;2.30;;
5612;SDS011;2828;53.582;9.956;2022-07-24T08:37:01;2.87;;;2.67;;
5612;SDS011;2828;53.582;9.956;2022-07-24T08:39:27;2.00;;;1.90;;
5612;SDS011;2828;53.582;9.956;2022-07-24T08:41:53;8.73;;;2.87;;
5612;SDS011;2828;53.582;9.956;2022-07-24T08:44:19;3.60;;;3.40;;
5612;SDS011;2828;53.582;9.956;2022-07-24T08:46:45;2.20;;;1.97;;
5612;SDS011;2828;53.582;9.956;2022-07-24T08:49:13;2.50;;;2.30;;
5612;SDS011;2828;53.582;9.956;2022-07-24T08:51:41;6.40;;;2.20;;
5612;SDS011;2828;53.582;9.956;2022-07-24T08:54:07;2.30;;;2.10;;
5612;SDS011;2828;53.582;9.956;2022-07-24T08:56:34;4.33;;;3.00;;
5612;SDS011;2828;53.582;9.956;2022-07-24T08:59:02;4.23;;;2.30;;
5612;SDS011;2828;53.582;9.956;2022-07-24T09:01:28;3.83;;;2.50;;
5612;SDS011;2828;53.582;9.956;2022-07-24T09:03:54;2.60;;;2.40;;
5612;SDS011;2828;53.582;9.956;2022-07-24T09:06:20;2.10;;;2.00;;
5612;SDS011;2828;53.582;9.956;2022-07-24T09:08:57;3.53;;;2.20;;
5612;SDS011;2828;53.582;9.956;2022-07-24T09:11:23;7.80;;;2.07;;
5612;SDS011;2828;53.582;9.956;2022-07-24T09:13:50;2.00;;;1.90;;
5612;SDS011;2828;53.582;9.956;2022-07-24T09:16:35;4.47;;;2.40;;
5612;SDS011;2828;53.582;9.956;2022-07-24T09:19:06;2.43;;;2.33;;
5612;SDS011;2828;53.582;9.956;2022-07-24T09:21:36;10.90;;;2.57;;
5612;SDS011;2828;53.582;9.956;2022-07-24T09:24:12;2.10;;;2.00;;
5612;SDS011;2828;53.582;9.956;2022-07-24T09:29:13;2.13;;;2.03;;
5612;SDS011;2828;53.582;9.956;2022-07-24T09:31:50;3.53;;;2.40;;
5612;SDS011;2828;53.582;9.956;2022-07-24T09:34:16;1.90;;;1.80;;
5612;SDS011;2828;53.582;9.956;2022-07-24T09:36:50;2.20;;;2.10;;
5612;SDS011;2828;53.582;9.956;2022-07-24T09:39:20;2.40;;;2.30;;
5612;SDS011;2828;53.582;9.956;2022-07-24T09:41:50;2.43;;;2.13;;
5612;SDS011;2828;53.582;9.956;2022-07-24T09:44:17;3.23;;;2.00;;
5612;SDS011;2828;53.582;9.956;2022-07-24T09:46:47;1.90;;;1.80;;
5612;SDS011;2828;53.582;9.956;2022-07-24T09:49:19;2.60;;;1.97;;
5612;SDS011;2828;53.582;9.956;2022-07-24T09:51:46;2.17;;;1.97;;
5612;SDS011;2828;53.582;9.956;2022-07-24T09:54:34;3.57;;;2.10;;
5612;SDS011;2828;53.582;9.956;2022-07-24T09:59:59;2.40;;;2.20;;
5612;SDS011;2828;53.582;9.956;2022-07-24T10:02:27;3.67;;;3.07;;
5612;SDS011;2828;53.582;9.956;2022-07-24T10:04:55;2.97;;;2.47;;
5612;SDS011;2828;53.582;9.956;2022-07-24T10:07:22;4.00;;;2.47;;
5612;SDS011;2828;53.582;9.956;2022-07-24T10:09:49;3.30;;;3.00;;
5612;SDS011;2828;53.582;9.956;2022-07-24T10:12:19;3.50;;;2.50;;
5612;SDS011;2828;53.582;9.956;2022-07-24T10:14:46;2.78;;;2.58;;
5612;SDS011;2828;53.582;9.956;2022-07-24T10:17:13;5.57;;;2.53;;
5612;SDS011;2828;53.582;9.956;2022-07-24T10:19:44;4.60;;;2.67;;
5612;SDS011;2828;53.582;9.956;2022-07-24T10:22:20;5.22;;;2.85;;
5612;SDS011;2828;53.582;9.956;2022-07-24T10:24:56;3.28;;;2.97;;
5612;SDS011;2828;53.582;9.956;2022-07-24T10:27:26;3.42;;;2.83;;
5612;SDS011;2828;53.582;9.956;2022-07-24T10:29:53;4.72;;;2.65;;
5612;SDS011;2828;53.582;9.956;2022-07-24T10:32:20;3.25;;;2.58;;
5612;SDS011;2828;53.582;9.956;2022-07-24T10:37:31;4.25;;;2.63;;
5612;SDS011;2828;53.582;9.956;2022-07-24T10:40:11;3.15;;;2.90;;
5612;SDS011;2828;53.582;9.956;2022-07-24T10:45:22;4.55;;;3.08;;
5612;SDS011;2828;53.582;9.956;2022-07-24T10:47:49;4.57;;;3.17;;
5612;SDS011;2828;53.582;9.956;2022-07-24T10:50:20;5.93;;;3.35;;
5612;SDS011;2828;53.582;9.956;2022-07-24T10:52:47;3.78;;;3.15;;
5612;SDS011;2828;53.582;9.956;2022-07-24T11:00:37;3.08;;;2.88;;
5612;SDS011;2828;53.582;9.956;2022-07-24T11:03:08;3.08;;;2.85;;
5612;SDS011;2828;53.582;9.956;2022-07-24T11:05:42;3.25;;;3.00;;
5612;SDS011;2828;53.582;9.956;2022-07-24T11:10:53;6.05;;;3.65;;
5612;SDS011;2828;53.582;9.956;2022-07-24T11:18:36;3.10;;;2.90;;
5612;SDS011;2828;53.582;9.956;2022-07-24T11:21:02;4.22;;;3.72;;
5612;SDS011;2828;53.582;9.956;2022-07-24T11:23:29;3.55;;;3.25;;
5612;SDS011;2828;53.582;9.956;2022-07-24T11:28:40;3.10;;;2.65;;
5612;SDS011;2828;53.582;9.956;2022-07-24T11:31:06;3.60;;;3.13;;
5612;SDS011;2828;53.582;9.956;2022-07-24T11:33:35;4.68;;;3.28;;
5612;SDS011;2828;53.582;9.956;2022-07-24T11:36:06;4.55;;;3.80;;
5612;SDS011;2828;53.582;9.956;2022-07-24T11:38:32;3.75;;;3.30;;
5612;SDS011;2828;53.582;9.956;2022-07-24T11:41:05;3.42;;;3.13;;
5612;SDS011;2828;53.582;9.956;2022-07-24T11:43:33;6.60;;;3.75;;
5612;SDS011;2828;53.582;9.956;2022-07-24T11:45:59;5.03;;;3.80;;
5612;SDS011;2828;53.582;9.956;2022-07-24T11:48:25;4.28;;;3.92;;
5612;SDS011;2828;53.582;9.956;2022-07-24T11:51:02;5.88;;;3.35;;
5612;SDS011;2828;53.582;9.956;2022-07-24T11:53:27;5.03;;;3.63;;
5612;SDS011;2828;53.582;9.956;2022-07-24T11:56:02;4.72;;;3.58;;
5612;SDS011;2828;53.582;9.956;2022-07-24T11:58:28;4.10;;;3.80;;
5612;SDS011;2828;53.582;9.956;2022-07-24T12:00:54;5.45;;;3.25;;
5612;SDS011;2828;53.582;9.956;2022-07-24T12:03:23;4.13;;;3.22;;
5612;SDS011;2828;53.582;9.956;2022-07-24T12:05:49;13.35;;;3.13;;
5612;SDS011;2828;53.582;9.956;2022-07-24T12:08:16;4.07;;;3.45;;
5612;SDS011;2828;53.582;9.956;2022-07-24T12:10:44;4.03;;;3.63;;
5612;SDS011;2828;53.582;9.956;2022-07-24T12:13:10;5.80;;;2.92;;
5612;SDS011;2828;53.582;9.956;2022-07-24T12:15:37;4.10;;;3.80;;
5612;SDS011;2828;53.582;9.956;2022-07-24T12:18:07;6.40;;;3.50;;
5612;SDS011;2828;53.582;9.956;2022-07-24T12:20:38;3.78;;;3.47;;
5612;SDS011;2828;53.582;9.956;2022-07-24T12:23:06;4.82;;;3.28;;
5612;SDS011;2828;53.582;9.956;2022-07-24T12:25:32;3.47;;;3.13;;
5612;SDS011;2828;53.582;9.956;2022-07-24T12:28:05;3.35;;;2.95;;
5612;SDS011;2828;53.582;9.956;2022-07-24T12:30:36;3.65;;;3.35;;
5612;SDS011;2828;53.582;9.956;2022-07-24T12:33:04;4.05;;;3.60;;
5612;SDS011;2828;53.582;9.956;2022-07-24T12:35:31;4.32;;;3.20;;
5612;SDS011;2828;53.582;9.956;2022-07-24T12:37:58;4.10;;;3.80;;
5612;SDS011;2828;53.582;9.956;2022-07-24T12:40:25;5.68;;;3.00;;
5612;SDS011;2828;53.582;9.956;2022-07-24T12:42:58;4.43;;;4.03;;
5612;SDS011;2828;53.582;9.956;2022-07-24T12:45:24;3.50;;;3.22;;
5612;SDS011;2828;53.582;9.956;2022-07-24T12:48:10;3.72;;;3.42;;
5612;SDS011;2828;53.582;9.956;2022-07-24T12:50:37;3.78;;;3.35;;
5612;SDS011;2828;53.582;9.956;2022-07-24T12:53:04;3.45;;;3.25;;
5612;SDS011;2828;53.582;9.956;2022-07-24T12:55:30;4.38;;;3.20;;
5612;SDS011;2828;53.582;9.956;2022-07-24T12:57:58;3.28;;;3.08;;
5612;SDS011;2828;53.582;9.956;2022-07-24T13:00:24;5.30;;;4.00;;
5612;SDS011;2828;53.582;9.956;2022-07-24T13:02:50;3.25;;;2.92;;
5612;SDS011;2828;53.582;9.956;2022-07-24T13:05:16;4.70;;;3.83;;
5612;SDS011;2828;53.582;9.956;2022-07-24T13:08:01;3.45;;;2.97;;
5612;SDS011;2828;53.582;9.956;2022-07-24T13:10:27;3.90;;;3.50;;
5612;SDS011;2828;53.582;9.956;2022-07-24T13:12:53;3.72;;;3.42;;
5612;SDS011;2828;53.582;9.956;2022-07-24T13:15:18;5.75;;;3.13;;
5612;SDS011;2828;53.582;9.956;2022-07-24T13:17:44;3.97;;;3.60;;
5612;SDS011;2828;53.582;9.956;2022-07-24T13:20:11;3.85;;;3.20;;
5612;SDS011;2828;53.582;9.956;2022-07-24T13:22:37;3.97;;;3.67;;
5612;SDS011;2828;53.582;9.956;2022-07-24T13:25:03;4.28;;;3.17;;
5612;SDS011;2828;53.582;9.956;2022-07-24T13:27:29;7.15;;;3.40;;
5612;SDS011;2828;53.582;9.956;2022-07-24T13:29:55;3.28;;;3.08;;
5612;SDS011;2828;53.582;9.956;2022-07-24T13:32:21;3.40;;;3.10;;
5612;SDS011;2828;53.582;9.956;2022-07-24T13:34:47;3.33;;;3.03;;
5612;SDS011;2828;53.582;9.956;2022-07-24T13:37:13;4.38;;;3.88;;
5612;SDS011;2828;53.582;9.956;2022-07-24T13:39:39;3.83;;;3.53;;
5612;SDS011;2828;53.582;9.956;2022-07-24T13:42:07;5.13;;;3.45;;
5612;SDS011;2828;53.582;9.956;2022-07-24T13:44:33;3.13;;;2.92;;
5612;SDS011;2828;53.582;9.956;2022-07-24T13:46:59;4.13;;;3.33;;
5612;SDS011;2828;53.582;9.956;2022-07-24T13:49:25;6.80;;;3.63;;
5612;SDS011;2828;53.582;9.956;2022-07-24T13:51:51;3.28;;;2.97;;
5612;SDS011;2828;53.582;9.956;2022-07-24T13:54:17;3.13;;;2.83;;
5612;SDS011;2828;53.582;9.956;2022-07-24T13:56:43;3.60;;;3.30;;
5612;SDS011;2828;53.582;9.956;2022-07-24T13:59:09;4.50;;;3.00;;
5612;SDS011;2828;53.582;9.956;2022-07-24T14:01:35;3.53;;;3.22;;
5612;SDS011;2828;53.582;9.956;2022-07-24T14:04:03;2.90;;;2.70;;
5612;SDS011;2828;53.582;9.956;2022-07-24T14:06:32;3.13;;;2.60;;
5612;SDS011;2828;53.582;9.956;2022-07-24T14:08:59;3.75;;;3.35;;
5612;SDS011;2828;53.582;9.956;2022-07-24T14:11:25;5.03;;;2.88;;
5612;SDS011;2828;53.582;9.956;2022-07-24T14:13:51;3.28;;;3.05;;
5612;SDS011;2828;53.582;9.956;2022-07-24T14:16:17;2.88;;;2.55;;
5612;SDS011;2828;53.582;9.956;2022-07-24T14:18:43;5.53;;;2.67;;
5612;SDS011;2828;53.582;9.956;2022-07-24T14:21:09;3.05;;;2.85;;
5612;SDS011;2828;53.582;9.956;2022-07-24T14:23:35;3.60;;;3.10;;
5612;SDS011;2828;53.582;9.956;2022-07-24T14:26:01;7.78;;;3.00;;
5612;SDS011;2828;53.582;9.956;2022-07-24T14:28:27;3.55;;;3.25;;
5612;SDS011;2828;53.582;9.956;2022-07-24T14:30:53;4.38;;;3.30;;
5612;SDS011;2828;53.582;9.956;2022-07-24T14:33:19;3.60;;;3.28;;
5612;SDS011;2828;53.582;9.956;2022-07-24T14:35:45;3.28;;;3.08;;
5612;SDS011;2828;53.582;9.956;2022-07-24T14:38:11;5.90;;;3.25;;
5612;SDS011;2828;53.582;9.956;2022-07-24T14:40:37;3.67;;;2.95;;
5612;SDS011;2828;53.582;9.956;2022-07-24T14:43:03;4.72;;;2.85;;
5612;SDS011;2828;53.582;9.956;2022-07-24T14:45:29;3.75;;;2.78;;
5612;SDS011;2828;53.582;9.956;2022-07-24T14:47:55;3.75;;;3.40;;
5612;SDS011;2828;53.582;9.956;2022-07-24T14:50:21;3.55;;;3.28;;
5612;SDS011;2828;53.582;9.956;2022-07-24T14:52:47;2.97;;;2.78;;
5612;SDS011;2828;53.582;9.956;2022-07-24T14:55:13;2.75;;;2.65;;
5612;SDS011;2828;53.582;9.956;2022-07-24T14:57:39;3.05;;;2.85;;
5612;SDS011;2828;53.582;9.956;2022-07-24T15:00:05;2.83;;;2.63;;
5612;SDS011;2828;53.582;9.956;2022-07-24T15:02:31;3.90;;;2.97;;
5612;SDS011;2828;53.582;9.956;2022-07-24T15:04:58;3.10;;;2.80;;
5612;SDS011;2828;53.582;9.956;2022-07-24T15:07:24;3.30;;;3.10;;
5612;SDS011;2828;53.582;9.956;2022-07-24T15:09:50;3.08;;;2.92;;
5612;SDS011;2828;53.582;9.956;2022-07-24T15:12:16;5.40;;;2.70;;
5612;SDS011;2828;53.582;9.956;2022-07-24T15:14:42;2.90;;;2.70;;
5612;SDS011;2828;53.582;9.956;2022-07-24T15:17:08;4.40;;;2.78;;
5612;SDS011;2828;53.582;9.956;2022-07-24T15:19:34;2.70;;;2.50;;
5612;SDS011;2828;53.582;9.956;2022-07-24T15:22:00;3.88;;;3.15;;
5612;SDS011;2828;53.582;9.956;2022-07-24T15:24:26;5.07;;;2.90;;
5612;SDS011;2828;53.582;9.956;2022-07-24T15:26:52;3.78;;;3.38;;
5612;SDS011;2828;53.582;9.956;2022-07-24T15:29:18;3.38;;;3.17;;
5612;SDS011;2828;53.582;9.956;2022-07-24T15:31:44;4.20;;;3.08;;
5612;SDS011;2828;53.582;9.956;2022-07-24T15:34:11;5.05;;;4.57;;
5612;SDS011;2828;53.582;9.956;2022-07-24T15:36:37;4.07;;;3.65;;
5612;SDS011;2828;53.582;9.956;2022-07-24T15:39:04;3.95;;;3.40;;